This is the latest recevied weather packets stored in our database for station/object W4MJZ-1. If no packets are shown the sender has not sent any weather packets the latest 10 day(s).
| Time | Temp. | Humidity | Pressure | Rain* | Wind** | Luminosity | Snow |
|---|---|---|---|---|---|---|---|
| 1777642361 | 13.89° C | 76% | 1020 hPa | 0 mm | - | - | - |
| 1777642339 | 14.44° C | 73% | 1020 hPa | 0 mm | - | - | - |
| 1777642079 | 13.33° C | 79% | 1020 hPa | 0 mm | - | - | - |
| 1777642039 | 13.89° C | 76% | 1020 hPa | 0 mm | - | - | - |
| 1777641790 | 12.22° C | 82% | 1020 hPa | 0 mm | - | - | - |
| 1777641739 | 13.33° C | 79% | 1020 hPa | 0 mm | - | - | - |
| 1777641439 | 12.22° C | 82% | 1020 hPa | 0 mm | - | - | - |
| 1777641430 | 11.67° C | 85% | 1019.6 hPa | 0 mm | - | - | - |
| 1777641173 | 11.11° C | 86% | 1020 hPa | 0 mm | - | - | - |
| 1777641139 | 11.67° C | 85% | 1019.6 hPa | 0 mm | - | - | - |
| 1777640840 | 11.11° C | 86% | 1020 hPa | 0 mm | - | - | - |
| 1777640776 | 11.11° C | 86% | 1019.6 hPa | 0 mm | - | - | - |
| 1777640539 | 11.11° C | 86% | 1019.6 hPa | 0 mm | - | - | - |
| 1777640239 | 11.11° C | 86% | 1020 hPa | 0 mm | - | - | - |
| 1777639971 | 10.56° C | 88% | 1019.6 hPa | 0 mm | - | - | - |
| 1777639939 | 11.11° C | 87% | 1019.6 hPa | 0 mm | - | - | - |
| 1777639639 | 10.56° C | 88% | 1019.6 hPa | 0 mm | - | - | - |
| 1777639373 | 10.56° C | 89% | 1019.2 hPa | 0 mm | - | - | - |
| 1777639339 | 10.56° C | 89% | 1019.2 hPa | 0 mm | - | - | - |
| 1777639325 | 10.56° C | 89% | 1019.2 hPa | 0 mm | - | - | - |
| 1777639039 | 10.56° C | 89% | 1019.2 hPa | 0 mm | - | - | - |
| 1777638739 | 10.56° C | 89% | 1019.6 hPa | 0 mm | - | - | - |
| 1777638439 | 10.56° C | 90% | 1019.6 hPa | 0 mm | - | - | - |
| 1777638146 | 10° C | 90% | 1019.2 hPa | 0 mm | - | - | - |
| 1777638139 | 10.56° C | 90% | 1019.6 hPa | 0 mm | - | - | - |
* Rain latest hour (hover to see other rain measurements)
** Current wind speed in m/s (hover to see current wind gust speed)